Archival Weather

Chicago O'Hare International

Chicago, Illinois (KORD)

Report from: Wednesday, December 28, 2022 12:51 AM CST
Current time: Friday, June 14, 2024 8:36 AM CDT

Current weather – Weather history – Daily summaries
Weather forecast

Temperature-3.9°C (25.0°F)
Wind chill-10.2°C (13.6°F)
Dew point-7.2°C (19.0°F)
Winds 11 kts (5.7 m/s, 12.7 mph) South (190°)
Visibility10 mi. (16.1 km)
Clouds Ceiling: Broken clouds 25,000 ft. (7,620 m)
Altimeter29.85 in.Hg (1011 mB)
Relative humidity78 %
Density altitude-2,226 ft. (-679 m)
Sea-level pressure101.2 kPa (1012 mB, 29.88 in.Hg)
Remarks Automated weather observing station with precipitation discriminator
Flight conditions Visual Meteorological Conditions
Raw dataKORD 280651Z 19011KT 10SM BKN250 M04/M07 A2985 RMK AO2 SLP119 T10391072
An error has occurred. This application may no longer respond until reloaded. Reload 🗙